Observations for Trim Patrick St
| Time | AQI | Temp °C | Hum % | Pres Pa | CO μg/m³ | H₂S μg/m³ | NO μg/m³ | NO₂ μg/m³ | O₃ μg/m³ | SO₂ μg/m³ | PM1 μg/m³ | PM2.5 μg/m³ | PM10 μg/m³ |
|---|---|---|---|---|---|---|---|---|---|---|---|---|---|
| Friday 28 August 2026 | |||||||||||||
| 02:07 | 3 | 16.7 | 88 | 38,460 | 0.15 | 2.57 | 1.64 | 13.84 | 34.92 | 0 | 13.14 | 19.07 | 20.97 |
| 02:06 | 3 | 16.7 | 88 | 38,460 | 0.14 | 2.54 | 1.59 | 14.51 | 33.15 | 0 | 12.29 | 17.02 | 18.72 |
| 02:05 | 3 | 16.7 | 88 | 38,460 | 0.15 | 2.78 | 1.55 | 16.77 | 31.28 | 0 | 14.86 | 19.75 | 21.73 |
| 02:04 | 3 | 16.7 | 88 | 38,460 | 0.15 | 1.31 | 1.51 | 13.12 | 35.86 | 0 | 12.29 | 18.38 | 20.22 |
| 02:03 | 3 | 16.7 | 88 | 38,460 | 0.15 | 0.61 | 1.48 | 11.96 | 40.08 | 0 | 11.43 | 16.33 | 17.97 |
| 02:02 | 3 | 16.7 | 88 | 38,460 | 0.14 | 1.1 | 1.42 | 12.48 | 36.77 | 0 | 12.29 | 16.33 | 17.97 |
| 02:01 | 3 | 16.7 | 88 | 38,460 | 0.15 | 0.84 | 1.51 | 12.27 | 38.37 | 0 | 12.29 | 17.02 | 18.72 |
| 02:00 | 3 | 16.7 | 88 | 38,460 | 0.14 | 0.82 | 1.66 | 12.38 | 36.74 | 0 | 11.43 | 17.02 | 18.72 |
| 01:59 | 3 | 16.7 | 88 | 38,460 | 0.16 | 0.82 | 1.59 | 12.06 | 36.93 | 0 | 13.14 | 17.02 | 18.72 |
| 01:58 | 3 | 16.7 | 88 | 38,460 | 0.15 | 0.63 | 1.52 | 12.48 | 37.06 | 0 | 12.29 | 16.33 | 17.97 |
| 01:57 | 3 | 16.7 | 88 | 38,460 | 0.15 | 0.69 | 1.52 | 12.06 | 39.77 | 0 | 11.43 | 17.7 | 19.47 |
| 01:56 | 3 | 16.7 | 88 | 38,460 | 0.14 | 1.08 | 1.26 | 12.27 | 38.51 | 0 | 14 | 19.07 | 20.97 |
| 01:55 | 3 | 16.7 | 88 | 38,460 | 0.15 | 0.74 | 1.14 | 12.25 | 37.66 | 0 | 12.29 | 19.08 | 20.99 |
| 01:54 | 3 | 16.8 | 88 | 38,460 | 0.15 | 1.29 | 1.07 | 11.43 | 41.13 | 0 | 11.43 | 17.71 | 19.48 |
| 01:53 | 3 | 16.7 | 88 | 38,460 | 0.14 | 1.76 | 1.05 | 13.7 | 35.75 | 0 | 11.43 | 17.03 | 18.73 |
| 01:52 | 3 | 16.7 | 88 | 38,460 | 0.15 | 1.65 | 1.04 | 13.95 | 32.51 | 0 | 13.14 | 19.08 | 20.99 |
| 01:51 | 3 | 16.7 | 88 | 38,460 | 0.15 | 2.31 | 1.39 | 13.7 | 35.89 | 0 | 14 | 18.39 | 20.23 |
| 01:50 | 3 | 16.8 | 88 | 38,460 | 0.15 | 2.49 | 1.43 | 14.97 | 30.94 | 0 | 12.29 | 17.03 | 18.73 |
| 01:49 | 3 | 16.8 | 88 | 38,460 | 0.14 | 1.65 | 1.42 | 12.15 | 37.57 | 0 | 14 | 19.77 | 21.75 |
| 01:48 | 3 | 16.8 | 88 | 38,460 | 0.14 | 3.01 | 1.5 | 15.29 | 30.01 | 0 | 11.43 | 18.41 | 20.25 |